createdAt,value
2022-09-05T00:01:54.746Z,0
2022-09-05T00:03:34.516Z,0
2022-09-05T00:05:14.267Z,0
2022-09-05T00:06:54.040Z,0
2022-09-05T00:08:33.819Z,0
2022-09-05T00:11:53.338Z,0
2022-09-05T00:13:33.104Z,0
2022-09-05T00:15:12.874Z,0
2022-09-05T00:16:52.647Z,0
2022-09-05T00:18:32.419Z,0
2022-09-05T00:21:51.953Z,0
2022-09-05T00:23:31.704Z,0
2022-09-05T00:25:11.489Z,0
2022-09-05T00:26:51.243Z,0
2022-09-05T00:28:31.043Z,0
2022-09-05T00:31:50.542Z,0
2022-09-05T00:33:30.310Z,0
2022-09-05T00:35:10.124Z,0
2022-09-05T00:36:49.917Z,0
2022-09-05T00:41:49.171Z,0
2022-09-05T00:43:28.974Z,0
2022-09-05T00:45:08.679Z,0
2022-09-05T00:46:48.459Z,0
2022-09-05T00:48:28.257Z,0
2022-09-05T00:51:47.763Z,0
2022-09-05T00:53:27.529Z,0
2022-09-05T00:55:07.293Z,0
2022-09-05T00:56:47.064Z,0
2022-09-05T00:58:26.853Z,0
2022-09-05T01:00:06.609Z,0
2022-09-05T01:01:46.365Z,0
2022-09-05T01:03:26.187Z,0
2022-09-05T01:05:05.953Z,0
2022-09-05T01:06:45.668Z,0
2022-09-05T01:08:25.431Z,0
2022-09-05T01:11:44.961Z,0
2022-09-05T01:13:24.743Z,0
2022-09-05T01:15:04.530Z,0
2022-09-05T01:16:44.275Z,0
2022-09-05T01:18:24.033Z,0
2022-09-05T01:20:03.805Z,0
2022-09-05T01:23:23.343Z,0
2022-09-05T01:25:03.108Z,0
2022-09-05T01:26:42.875Z,0
2022-09-05T01:28:22.639Z,0
2022-09-05T01:31:42.174Z,0
2022-09-05T01:33:21.944Z,0
2022-09-05T01:35:01.712Z,0
2022-09-05T01:36:41.490Z,0
2022-09-05T01:38:21.249Z,0
2022-09-05T01:41:40.793Z,0
2022-09-05T01:43:20.604Z,0
2022-09-05T01:45:00.357Z,0
2022-09-05T01:46:40.129Z,0
2022-09-05T01:48:19.898Z,0
2022-09-05T01:49:59.656Z,0
2022-09-05T01:51:39.420Z,0
2022-09-05T01:53:19.194Z,0
2022-09-05T01:54:58.953Z,0
2022-09-05T01:56:38.702Z,0
2022-09-05T01:58:18.488Z,0
2022-09-05T02:01:38.005Z,0
2022-09-05T02:03:17.768Z,0
2022-09-05T02:04:57.529Z,0
2022-09-05T02:06:37.308Z,0
2022-09-05T02:08:17.063Z,0
2022-09-05T02:11:36.623Z,0
2022-09-05T02:13:16.356Z,0
2022-09-05T02:14:56.128Z,0
2022-09-05T02:16:35.905Z,0
2022-09-05T02:18:15.664Z,0
2022-09-05T02:21:35.207Z,0
2022-09-05T02:23:14.977Z,0
2022-09-05T02:24:54.760Z,0
2022-09-05T02:26:34.537Z,0
2022-09-05T02:28:14.279Z,0
2022-09-05T02:31:33.827Z,0
2022-09-05T02:33:13.613Z,0
2022-09-05T02:34:53.357Z,0
2022-09-05T02:36:33.113Z,0
2022-09-05T02:38:12.883Z,0
2022-09-05T02:41:32.412Z,0
2022-09-05T02:43:12.179Z,0
2022-09-05T02:44:51.949Z,0
2022-09-05T02:46:31.705Z,0
2022-09-05T02:48:11.489Z,0
2022-09-05T02:51:31.013Z,0
2022-09-05T02:53:10.800Z,0
2022-09-05T02:54:50.563Z,0
2022-09-05T02:58:10.082Z,0
2022-09-05T03:01:29.644Z,0
2022-09-05T03:03:09.384Z,0
2022-09-05T03:04:49.160Z,0
2022-09-05T03:06:28.915Z,0
2022-09-05T03:08:08.688Z,0
2022-09-05T03:11:28.224Z,0
2022-09-05T03:13:07.995Z,0
2022-09-05T03:14:47.756Z,0
2022-09-05T03:16:27.524Z,0
2022-09-05T03:18:07.293Z,0
2022-09-05T03:19:47.080Z,0
2022-09-05T03:21:26.820Z,0
2022-09-05T03:23:06.605Z,0
2022-09-05T03:24:46.367Z,0
2022-09-05T03:28:05.893Z,0
2022-09-05T03:31:25.440Z,0
2022-09-05T03:33:05.204Z,0
2022-09-05T03:34:44.977Z,0
2022-09-05T03:36:24.742Z,0
2022-09-05T03:38:04.504Z,0
2022-09-05T03:41:24.040Z,0
2022-09-05T03:43:03.813Z,0
2022-09-05T03:44:43.572Z,0
2022-09-05T03:46:23.337Z,0
2022-09-05T03:48:03.104Z,0
2022-09-05T03:51:22.639Z,0
2022-09-05T03:53:02.409Z,0
2022-09-05T03:54:42.177Z,0
2022-09-05T03:56:21.937Z,0
2022-09-05T03:58:01.699Z,0
2022-09-05T03:59:41.479Z,0
2022-09-05T04:01:21.235Z,0
2022-09-05T04:03:01.001Z,0
2022-09-05T04:04:40.760Z,0
2022-09-05T04:06:20.531Z,0
2022-09-05T04:08:00.294Z,0
2022-09-05T04:12:59.573Z,0
2022-09-05T04:16:19.103Z,0
2022-09-05T04:17:58.873Z,0
2022-09-05T04:21:18.398Z,0
2022-09-05T04:22:58.172Z,0
2022-09-05T04:24:37.928Z,0
2022-09-05T04:26:17.694Z,0
2022-09-05T04:27:57.469Z,0
2022-09-05T04:31:16.991Z,0.25
2022-09-05T04:32:56.764Z,0
2022-09-05T04:34:36.525Z,0
2022-09-05T04:36:16.279Z,1.28
2022-09-05T04:37:56.046Z,0.77
2022-09-05T04:41:15.583Z,1.54
2022-09-05T04:42:55.338Z,1.03
2022-09-05T04:44:35.108Z,2.06
2022-09-05T04:46:14.879Z,3.36
2022-09-05T04:47:54.639Z,3.62
2022-09-05T04:51:14.182Z,4.92
2022-09-05T04:52:53.967Z,4.4
2022-09-05T04:54:33.735Z,5.7
2022-09-05T04:56:13.482Z,6.23
2022-09-05T04:57:53.284Z,6.49
2022-09-05T04:59:33.015Z,7.77
2022-09-05T05:01:12.799Z,7.28
2022-09-05T05:02:52.556Z,16.48
2022-09-05T05:04:32.318Z,9.14
2022-09-05T05:07:51.861Z,9.68
2022-09-05T05:11:11.393Z,10.5
2022-09-05T05:12:51.166Z,11.56
2022-09-05T05:14:30.936Z,12.1
2022-09-05T05:16:10.718Z,12.64
2022-09-05T05:17:50.480Z,13.46
2022-09-05T05:19:30.257Z,14.27
2022-09-05T05:21:10.024Z,14.56
2022-09-05T05:22:49.786Z,15.38
2022-09-05T05:24:29.564Z,15.93
2022-09-05T05:26:09.323Z,16.77
2022-09-05T05:27:49.121Z,16.79
2022-09-05T05:31:08.645Z,17.93
2022-09-05T05:32:48.404Z,19.31
2022-09-05T05:34:28.179Z,19.07
2022-09-05T05:37:47.706Z,20.5
2022-09-05T05:41:07.251Z,21.38
2022-09-05T05:42:47.025Z,21.69
2022-09-05T05:44:26.787Z,21.72
2022-09-05T05:46:06.559Z,22.85
2022-09-05T05:47:46.335Z,23.44
2022-09-05T05:49:26.093Z,23.74
2022-09-05T05:51:05.859Z,22.92
2022-09-05T05:52:45.628Z,19.65
2022-09-05T05:54:25.435Z,19.39
2022-09-05T05:56:05.199Z,18.02
2022-09-05T05:57:44.967Z,16.91
2022-09-05T06:01:04.473Z,18.85
2022-09-05T06:02:44.269Z,33.31
2022-09-05T06:04:24.025Z,54.88
2022-09-05T06:07:43.566Z,55.86
2022-09-05T06:11:03.107Z,51.79
2022-09-05T06:12:42.867Z,51.9
2022-09-05T06:14:22.647Z,62.69
2022-09-05T06:16:02.407Z,62.31
2022-09-05T06:17:42.175Z,60.34
2022-09-05T06:21:01.724Z,57.32
2022-09-05T06:22:41.481Z,58.84
2022-09-05T06:24:21.289Z,56.41
2022-09-05T06:26:01.020Z,55.52
2022-09-05T06:27:40.798Z,56.49
2022-09-05T06:31:00.346Z,56.51
2022-09-05T06:32:40.109Z,54.03
2022-09-05T06:34:19.869Z,56.1
2022-09-05T06:35:59.647Z,53.74
2022-09-05T06:37:39.441Z,55.63
2022-09-05T06:39:19.188Z,54.14
2022-09-05T06:40:58.961Z,51.7
2022-09-05T06:42:38.728Z,52.96
2022-09-05T06:44:18.553Z,52.34
2022-09-05T06:45:58.257Z,52.96
2022-09-05T06:47:38.057Z,52.88
2022-09-05T06:49:17.851Z,50.83
2022-09-05T06:50:57.562Z,51.76
2022-09-05T06:52:37.341Z,51.48
2022-09-05T06:54:17.112Z,51.16
2022-09-05T06:55:56.882Z,50.23
2022-09-05T06:57:36.645Z,51.12
2022-09-05T06:59:16.419Z,51.14
2022-09-05T07:00:56.193Z,51.12
2022-09-05T07:02:35.977Z,51.16
2022-09-05T07:04:15.789Z,50.54
2022-09-05T07:05:55.504Z,50.85
2022-09-05T07:07:35.291Z,50.8
2022-09-05T07:09:15.123Z,49.67
2022-09-05T07:10:54.814Z,50
2022-09-05T07:12:34.589Z,50.56
2022-09-05T07:14:14.358Z,51.47
2022-09-05T07:15:54.134Z,49.93
2022-09-05T07:17:33.893Z,49.6
2022-09-05T07:19:13.661Z,48.43
2022-09-05T07:20:53.444Z,49.7
2022-09-05T07:22:45.929Z,49.36
2022-09-05T07:24:12.980Z,48.82
2022-09-05T07:25:52.814Z,49.09
2022-09-05T07:27:32.511Z,49.65
2022-09-05T07:29:12.303Z,48.2
2022-09-05T07:30:52.068Z,49.02
2022-09-05T07:32:31.826Z,48.14
2022-09-05T07:34:11.593Z,53.21
2022-09-05T07:35:51.370Z,47.59
2022-09-05T07:37:31.136Z,48.48
2022-09-05T07:40:50.668Z,48.48
2022-09-05T07:42:30.442Z,46.94
2022-09-05T07:44:10.225Z,47.04
2022-09-05T07:45:49.992Z,46.98
2022-09-05T07:47:29.771Z,46.96
2022-09-05T07:50:49.363Z,47.91
2022-09-05T07:52:29.085Z,46.41
2022-09-05T07:54:08.840Z,45.78
2022-09-05T07:55:48.622Z,47.86
2022-09-05T07:57:28.394Z,47.28
2022-09-05T07:59:08.162Z,46.36
2022-09-05T08:00:47.937Z,46.72
2022-09-05T08:02:27.691Z,45.8
2022-09-05T08:04:07.471Z,46.36
2022-09-05T08:05:47.231Z,46.73
2022-09-05T08:07:27.012Z,46.43
2022-09-05T08:09:06.770Z,46.4
2022-09-05T08:10:46.553Z,45.85
2022-09-05T08:12:26.318Z,45.54
2022-09-05T08:14:06.116Z,46.14
2022-09-05T08:15:45.920Z,45.49
2022-09-05T08:17:25.635Z,46.35
2022-09-05T08:19:05.433Z,45.82
2022-09-05T08:20:45.167Z,45.51
2022-09-05T08:22:24.952Z,46.11
2022-09-05T08:24:04.716Z,44.88
2022-09-05T08:25:44.491Z,46.06
2022-09-05T08:27:24.248Z,44.32
2022-09-05T08:29:04.027Z,43.1
2022-09-05T08:32:23.569Z,46.4
2022-09-05T08:34:03.350Z,45.54
2022-09-05T08:35:43.092Z,44.37
2022-09-05T08:37:22.880Z,44.35
2022-09-05T08:39:02.648Z,44.35
2022-09-05T08:42:22.184Z,43.74
2022-09-05T08:44:01.951Z,44.01
2022-09-05T08:45:41.719Z,43.39
2022-09-05T08:47:21.495Z,42.84
2022-09-05T08:49:01.277Z,45.78
2022-09-05T08:50:41.037Z,42.6
2022-09-05T08:52:20.796Z,44.73
2022-09-05T08:54:00.628Z,41.71
2022-09-05T08:55:40.351Z,43.12
2022-09-05T08:57:20.164Z,41.94
2022-09-05T08:58:59.889Z,44.88
2022-09-05T09:00:39.663Z,43.97
2022-09-05T09:02:19.429Z,44.29
2022-09-05T09:03:59.282Z,42.84
2022-09-05T09:05:38.978Z,42.02
2022-09-05T09:07:18.777Z,42.57
2022-09-05T09:10:38.276Z,45.14
2022-09-05T09:12:18.059Z,42.31
2022-09-05T09:13:57.856Z,42.22
2022-09-05T09:15:37.583Z,0
2022-09-05T09:17:17.357Z,0
2022-09-05T09:18:57.131Z,0
2022-09-05T09:20:36.894Z,0
2022-09-05T09:22:16.670Z,0
2022-09-05T09:23:56.438Z,0
2022-09-05T09:25:36.224Z,0
2022-09-05T09:27:15.972Z,0
2022-09-05T09:30:35.507Z,7.04
2022-09-05T09:32:15.302Z,7.86
2022-09-05T09:33:55.054Z,8.13
2022-09-05T09:35:34.837Z,8.39
2022-09-05T09:37:14.592Z,8.39
2022-09-05T09:40:34.165Z,8.93
2022-09-05T09:42:13.915Z,7.86
2022-09-05T09:43:53.680Z,8.91
2022-09-05T09:45:33.451Z,8.68
2022-09-05T09:47:13.218Z,8.39
2022-09-05T09:50:32.770Z,10.03
2022-09-05T09:52:12.536Z,9.22
2022-09-05T09:53:52.344Z,8.67
2022-09-05T09:55:32.084Z,8.93
2022-09-05T09:57:11.832Z,8.39
2022-09-05T09:58:51.623Z,8.39
2022-09-05T10:00:31.428Z,8.13
2022-09-05T10:02:11.148Z,8.93
2022-09-05T10:03:50.918Z,9.49
2022-09-05T10:05:30.700Z,10.3
2022-09-05T10:07:10.467Z,8.13
2022-09-05T10:08:50.227Z,8.93
2022-09-05T10:10:30.011Z,7.05
2022-09-05T10:12:09.777Z,7.58
2022-09-05T10:13:49.572Z,7.05
2022-09-05T10:15:29.311Z,8.13
2022-09-05T10:17:09.100Z,8.39
2022-09-05T10:18:48.865Z,8.39
2022-09-05T10:20:28.621Z,7.58
2022-09-05T10:22:08.396Z,7.86
2022-09-05T10:23:48.166Z,6.5
2022-09-05T10:25:27.949Z,9.47
2022-09-05T10:27:07.748Z,9.21
2022-09-05T10:30:27.258Z,10.84
2022-09-05T10:32:07.021Z,5.96
2022-09-05T10:33:46.797Z,5.96
2022-09-05T10:35:26.557Z,8.67
2022-09-05T10:37:06.321Z,9.47
2022-09-05T10:38:46.096Z,7.59
2022-09-05T10:40:25.874Z,10.56
2022-09-05T10:42:05.632Z,6.23
2022-09-05T10:43:45.412Z,8.93
2022-09-05T10:45:25.186Z,9.75
2022-09-05T10:47:04.958Z,8.93
2022-09-05T10:48:44.716Z,10.29
2022-09-05T10:50:24.488Z,7.04
2022-09-05T10:52:04.260Z,4.33
2022-09-05T10:53:44.026Z,8.93
2022-09-05T10:55:23.821Z,7.85
2022-09-05T10:57:03.590Z,6.5
2022-09-05T10:58:43.359Z,9.47
2022-09-05T11:00:23.106Z,5.68
2022-09-05T11:02:02.948Z,5.4
2022-09-05T11:03:42.653Z,5.14
2022-09-05T11:05:22.433Z,7.58
2022-09-05T11:07:02.236Z,5.14
2022-09-05T11:10:21.736Z,5.14
2022-09-05T11:12:01.510Z,9.47
2022-09-05T11:13:41.268Z,7.85
2022-09-05T11:15:21.047Z,7.58
2022-09-05T11:17:00.818Z,7.31
2022-09-05T11:18:40.581Z,7.58
2022-09-05T11:20:20.345Z,7.85
2022-09-05T11:22:00.191Z,7.04
2022-09-05T11:23:39.906Z,5.41
2022-09-05T11:25:19.673Z,8.39
2022-09-05T11:26:59.455Z,5.95
2022-09-05T11:28:39.208Z,7.57
2022-09-05T11:30:18.988Z,9.74
2022-09-05T11:31:58.765Z,4.33
2022-09-05T11:33:38.519Z,8.12
2022-09-05T11:35:18.303Z,5.41
2022-09-05T11:36:58.071Z,5.14
2022-09-05T11:40:17.603Z,5.68
2022-09-05T11:41:57.378Z,9.2
2022-09-05T11:43:37.143Z,8.12
2022-09-05T11:45:16.912Z,6.22
2022-09-05T11:46:56.690Z,5.95
2022-09-05T11:50:16.240Z,6.76
2022-09-05T11:51:55.997Z,8.92
2022-09-05T11:53:35.759Z,5.68
2022-09-05T11:55:15.540Z,8.66
2022-09-05T11:56:55.345Z,7.57
2022-09-05T11:58:35.197Z,7.84
2022-09-05T12:00:15.003Z,5.95
2022-09-05T12:01:54.707Z,7.57
2022-09-05T12:03:34.391Z,9.2
2022-09-05T12:06:54.024Z,5.95
2022-09-05T12:10:13.526Z,9.2
2022-09-05T12:11:53.247Z,9.2
2022-09-05T12:13:33.106Z,8.64
2022-09-05T12:15:12.779Z,7.03
2022-09-05T12:16:52.653Z,6.76
2022-09-05T12:18:32.379Z,8.64
2022-09-05T12:20:12.186Z,10.51
2022-09-05T12:21:51.892Z,7.57
2022-09-05T12:23:31.686Z,6.76
2022-09-05T12:25:11.408Z,6.76
2022-09-05T12:26:51.186Z,8.64
2022-09-05T12:28:31.019Z,7.03
2022-09-05T12:30:10.728Z,6.21
2022-09-05T12:31:50.490Z,8.64
2022-09-05T12:33:30.258Z,6.21
2022-09-05T12:35:10.020Z,7.84
2022-09-05T12:36:49.796Z,7.3
2022-09-05T12:38:29.618Z,8.1
2022-09-05T12:40:09.337Z,6.75
2022-09-05T12:41:49.097Z,7.57
2022-09-05T12:43:28.883Z,7.03
2022-09-05T12:45:08.646Z,7.3
2022-09-05T12:46:48.438Z,8.1
2022-09-05T12:50:07.966Z,6.76
2022-09-05T12:51:47.734Z,7.02
2022-09-05T12:53:27.497Z,7.57
2022-09-05T12:55:07.287Z,7.84
2022-09-05T12:56:47.043Z,7.3
2022-09-05T12:58:26.813Z,7.3
2022-09-05T13:00:06.591Z,6.76
2022-09-05T13:01:46.363Z,7.29
2022-09-05T13:05:05.903Z,7.57
2022-09-05T13:06:45.660Z,6.76
2022-09-05T13:10:05.210Z,7.29
2022-09-05T13:11:44.979Z,6.48
2022-09-05T13:13:24.747Z,7.83
2022-09-05T13:16:44.295Z,7.03
2022-09-05T13:18:24.068Z,7.02
2022-09-05T13:20:03.844Z,7.29
2022-09-05T13:21:43.592Z,7.56
2022-09-05T13:23:23.372Z,7.29
2022-09-05T13:25:03.147Z,6.75
2022-09-05T13:26:42.907Z,6.48
2022-09-05T13:28:22.693Z,7.02
2022-09-05T13:30:02.448Z,6.75
2022-09-05T13:31:42.229Z,7.29
2022-09-05T13:33:21.991Z,7.29
2022-09-05T13:35:01.758Z,7.02
2022-09-05T13:36:41.541Z,6.75
2022-09-05T13:38:21.295Z,5.12
2022-09-05T13:40:01.085Z,6.75
2022-09-05T13:41:40.856Z,7.02
2022-09-05T13:43:20.622Z,7.02
2022-09-05T13:45:00.445Z,6.48
2022-09-05T13:46:40.154Z,7.29
2022-09-05T13:49:59.699Z,5.94
2022-09-05T13:51:39.475Z,6.75
2022-09-05T13:53:19.239Z,6.48
2022-09-05T13:54:59.058Z,7.29
2022-09-05T13:56:38.778Z,6.48
2022-09-05T13:58:18.573Z,6.21
2022-09-05T13:59:58.319Z,6.21
2022-09-05T14:01:38.110Z,5.67
2022-09-05T14:03:17.856Z,6.74
2022-09-05T14:04:57.634Z,5.39
2022-09-05T14:06:37.403Z,6.47
2022-09-05T14:08:17.189Z,6.47
2022-09-05T14:09:56.959Z,5.66
2022-09-05T14:11:36.728Z,5.39
2022-09-05T14:13:16.488Z,7.01
2022-09-05T14:14:56.249Z,6.47
2022-09-05T14:16:36.026Z,6.2
2022-09-05T14:18:15.795Z,6.74
2022-09-05T14:19:55.570Z,5.66
2022-09-05T14:21:35.338Z,5.93
2022-09-05T14:23:15.104Z,5.39
2022-09-05T14:24:54.870Z,6.19
2022-09-05T14:26:34.644Z,5.66
2022-09-05T14:28:14.426Z,5.39
2022-09-05T14:29:54.236Z,6.19
2022-09-05T14:31:33.963Z,6.74
2022-09-05T14:33:13.748Z,6.47
2022-09-05T14:34:53.501Z,7.28
2022-09-05T14:36:33.276Z,6.74
2022-09-05T14:38:13.049Z,6.47
2022-09-05T14:39:52.818Z,6.74
2022-09-05T14:41:32.577Z,6.74
2022-09-05T14:43:12.410Z,6.2
2022-09-05T14:44:52.127Z,6.74
2022-09-05T14:46:31.902Z,6.2
2022-09-05T14:49:51.446Z,6.2
2022-09-05T14:51:31.217Z,5.66
2022-09-05T14:53:10.989Z,6.74
2022-09-05T14:54:50.751Z,7
2022-09-05T14:56:30.513Z,9.67
2022-09-05T14:58:10.289Z,6.2
2022-09-05T14:59:50.061Z,6.46
2022-09-05T15:01:29.862Z,5.93
2022-09-05T15:03:09.635Z,5.92
2022-09-05T15:04:49.370Z,6.47
2022-09-05T15:06:29.135Z,6.47
2022-09-05T15:09:48.696Z,6.2
2022-09-05T15:11:28.461Z,6.46
2022-09-05T15:13:08.233Z,6.47
2022-09-05T15:14:48.003Z,6.19
2022-09-05T15:16:27.768Z,6.19
2022-09-05T15:18:07.567Z,6.73
2022-09-05T15:19:47.315Z,6.19
2022-09-05T15:21:27.073Z,6.46
2022-09-05T15:23:06.860Z,6.46
2022-09-05T15:24:46.629Z,5.92
2022-09-05T15:26:26.384Z,6.46
2022-09-05T15:29:45.943Z,6.74
2022-09-05T15:31:25.698Z,6.74
2022-09-05T15:33:05.476Z,6.73
2022-09-05T15:34:45.239Z,5.38
2022-09-05T15:36:25.017Z,6.73
2022-09-05T15:38:04.792Z,6.19
2022-09-05T15:39:44.560Z,6.46
2022-09-05T15:41:24.327Z,5.92
2022-09-05T15:43:04.095Z,5.92
2022-09-05T15:44:43.872Z,6.19
2022-09-05T15:46:23.637Z,5.92
2022-09-05T15:48:03.407Z,5.92
2022-09-05T15:49:43.179Z,5.92
2022-09-05T15:51:22.940Z,6.19
2022-09-05T15:54:42.504Z,6.19
2022-09-05T15:56:22.268Z,6.46
2022-09-05T15:58:02.024Z,6.19
2022-09-05T15:59:41.814Z,6.19
2022-09-05T16:01:21.582Z,5.92
2022-09-05T16:03:01.335Z,5.92
2022-09-05T16:04:41.111Z,6.19
2022-09-05T16:06:20.897Z,5.92
2022-09-05T16:09:40.425Z,6.19
2022-09-05T16:11:20.203Z,6.19
2022-09-05T16:12:59.975Z,6.46
2022-09-05T16:14:39.738Z,5.9
2022-09-05T16:16:19.509Z,5.39
2022-09-05T16:17:59.283Z,6.19
2022-09-05T16:19:39.063Z,5.92
2022-09-05T16:21:18.822Z,7
2022-09-05T16:22:58.598Z,6.19
2022-09-05T16:24:38.368Z,5.93
2022-09-05T16:26:18.131Z,6.19
2022-09-05T16:27:57.908Z,5.65
2022-09-05T16:29:37.685Z,6.46
2022-09-05T16:31:17.446Z,6.19
2022-09-05T16:32:57.214Z,5.92
2022-09-05T16:34:36.997Z,6.46
2022-09-05T16:36:16.752Z,5.65
2022-09-05T16:39:36.302Z,5.65
2022-09-05T16:41:16.084Z,6.19
2022-09-05T16:42:55.839Z,5.92
2022-09-05T16:44:35.599Z,5.65
2022-09-05T16:46:15.377Z,5.65
2022-09-05T16:49:34.928Z,5.65
2022-09-05T16:51:14.700Z,5.92
2022-09-05T16:52:54.466Z,5.38
2022-09-05T16:54:34.238Z,5.65
2022-09-05T16:56:13.993Z,6.18
2022-09-05T16:59:33.552Z,5.65
2022-09-05T17:01:13.320Z,5.65
2022-09-05T17:02:53.084Z,6.19
2022-09-05T17:04:32.849Z,6.46
2022-09-05T17:06:12.626Z,6.19
2022-09-05T17:09:32.209Z,5.92
2022-09-05T17:11:11.934Z,5.65
2022-09-05T17:14:31.469Z,5.92
2022-09-05T17:16:11.249Z,5.38
2022-09-05T17:17:51.014Z,5.38
2022-09-05T17:19:30.781Z,5.38
2022-09-05T17:21:10.566Z,6.18
2022-09-05T17:22:50.333Z,4.03
2022-09-05T17:24:30.131Z,2.14
2022-09-05T17:26:09.876Z,1.6
2022-09-05T17:29:29.437Z,1.05
2022-09-05T17:31:09.178Z,0.8
2022-09-05T17:32:48.953Z,0
2022-09-05T17:34:28.714Z,0
2022-09-05T17:36:08.487Z,0
2022-09-05T17:37:48.243Z,0
2022-09-05T17:39:28.043Z,0
2022-09-05T17:41:07.797Z,0
2022-09-05T17:42:47.569Z,0
2022-09-05T17:44:27.335Z,0
2022-09-05T17:46:07.101Z,0
2022-09-05T17:47:46.857Z,0
2022-09-05T17:49:26.620Z,0
2022-09-05T17:51:06.397Z,0
2022-09-05T17:52:46.167Z,0
2022-09-05T17:54:25.919Z,0
2022-09-05T17:56:05.715Z,0
2022-09-05T17:59:25.234Z,0
2022-09-05T18:01:05.010Z,0
2022-09-05T18:02:44.782Z,0
2022-09-05T18:04:24.566Z,0
2022-09-05T18:06:04.310Z,0
2022-09-05T18:09:23.838Z,0
2022-09-05T18:11:03.615Z,0
2022-09-05T18:12:43.403Z,0
2022-09-05T18:14:23.229Z,0
2022-09-05T18:16:02.906Z,0
2022-09-05T18:21:02.254Z,0
2022-09-05T18:22:42.025Z,0
2022-09-05T18:24:21.820Z,0
2022-09-05T18:26:01.609Z,0
2022-09-05T18:29:21.098Z,0
2022-09-05T18:31:00.888Z,0
2022-09-05T18:32:40.658Z,0
2022-09-05T18:34:20.437Z,0
2022-09-05T18:36:00.192Z,0
2022-09-05T18:39:19.753Z,0
2022-09-05T18:40:59.474Z,0
2022-09-05T18:42:39.239Z,0
2022-09-05T18:44:19.006Z,0
2022-09-05T18:45:58.752Z,0
2022-09-05T18:49:18.333Z,0
2022-09-05T18:50:58.032Z,0
2022-09-05T18:52:37.827Z,0
2022-09-05T18:54:17.594Z,0
2022-09-05T18:55:57.400Z,0
2022-09-05T18:57:37.109Z,0
2022-09-05T18:59:16.928Z,0
2022-09-05T19:00:56.717Z,0
2022-09-05T19:02:36.489Z,0
2022-09-05T19:04:16.184Z,0
2022-09-05T19:05:55.984Z,0
2022-09-05T19:07:35.779Z,0
2022-09-05T19:09:15.483Z,0
2022-09-05T19:10:55.257Z,0
2022-09-05T19:12:35.106Z,0
2022-09-05T19:14:14.867Z,0
2022-09-05T19:15:54.662Z,0
2022-09-05T19:19:14.188Z,0
2022-09-05T19:20:53.847Z,0
2022-09-05T19:22:33.701Z,0
2022-09-05T19:24:13.387Z,0
2022-09-05T19:25:53.145Z,0
2022-09-05T19:27:32.914Z,0
2022-09-05T19:30:52.453Z,0
2022-09-05T19:32:32.233Z,0
2022-09-05T19:34:11.986Z,0
2022-09-05T19:35:51.747Z,0
2022-09-05T19:37:31.525Z,0
2022-09-05T19:39:11.289Z,0
2022-09-05T19:40:51.067Z,0
2022-09-05T19:42:30.827Z,0
2022-09-05T19:44:10.600Z,0
2022-09-05T19:45:50.353Z,0
2022-09-05T19:49:09.903Z,0
2022-09-05T19:50:49.657Z,0
2022-09-05T19:52:29.428Z,0
2022-09-05T19:54:09.191Z,0
2022-09-05T19:55:48.970Z,0
2022-09-05T19:59:08.509Z,0
2022-09-05T20:00:48.262Z,0
2022-09-05T20:02:28.029Z,0
2022-09-05T20:04:07.849Z,0
2022-09-05T20:05:47.577Z,0
2022-09-05T20:07:27.341Z,0
2022-09-05T20:09:07.109Z,0
2022-09-05T20:12:26.656Z,0
2022-09-05T20:14:06.416Z,0
2022-09-05T20:15:46.174Z,0
2022-09-05T20:17:25.938Z,0
2022-09-05T20:19:05.703Z,0
2022-09-05T20:20:45.485Z,0
2022-09-05T20:22:25.242Z,0
2022-09-05T20:24:05.021Z,0
2022-09-05T20:25:44.793Z,0
2022-09-05T20:29:04.318Z,0
2022-09-05T20:30:44.081Z,0
2022-09-05T20:32:23.849Z,0
2022-09-05T20:34:03.619Z,0
2022-09-05T20:35:43.385Z,0
2022-09-05T20:37:23.156Z,0
2022-09-05T20:39:02.919Z,0
2022-09-05T20:40:42.706Z,0
2022-09-05T20:42:22.448Z,0
2022-09-05T20:45:41.977Z,0
2022-09-05T20:49:01.536Z,0
2022-09-05T20:50:41.290Z,0
2022-09-05T20:54:00.828Z,0
2022-09-05T20:55:40.598Z,0
2022-09-05T20:59:00.132Z,0
2022-09-05T21:00:39.887Z,0
2022-09-05T21:02:19.672Z,0
2022-09-05T21:03:59.429Z,0
2022-09-05T21:05:39.206Z,0
2022-09-05T21:08:58.739Z,0
2022-09-05T21:10:38.507Z,0
2022-09-05T21:12:18.273Z,0
2022-09-05T21:13:58.040Z,0
2022-09-05T21:15:37.800Z,0
2022-09-05T21:17:17.580Z,0
2022-09-05T21:18:57.345Z,0
2022-09-05T21:20:37.111Z,0
2022-09-05T21:22:16.887Z,0
2022-09-05T21:23:56.661Z,0
2022-09-05T21:28:55.954Z,0
2022-09-05T21:30:35.704Z,0
2022-09-05T21:32:15.478Z,0
2022-09-05T21:33:55.258Z,0
2022-09-05T21:35:35.026Z,0
2022-09-05T21:38:54.580Z,0
2022-09-05T21:40:34.308Z,0
2022-09-05T21:42:14.079Z,0
2022-09-05T21:43:53.864Z,0
2022-09-05T21:45:33.623Z,0
2022-09-05T21:47:13.399Z,0
2022-09-05T21:48:53.159Z,0
2022-09-05T21:50:32.915Z,0
2022-09-05T21:52:12.701Z,0
2022-09-05T21:53:52.452Z,0
2022-09-05T21:55:32.237Z,0
2022-09-05T21:58:51.756Z,0
2022-09-05T22:00:31.529Z,0
2022-09-05T22:02:11.313Z,0
2022-09-05T22:05:30.827Z,0
2022-09-05T22:08:50.377Z,0
2022-09-05T22:10:30.129Z,0
2022-09-05T22:12:09.917Z,0
2022-09-05T22:13:49.667Z,0
2022-09-05T22:15:29.431Z,0
2022-09-05T22:18:48.961Z,0
2022-09-05T22:20:28.730Z,0
2022-09-05T22:22:08.503Z,0
2022-09-05T22:23:48.284Z,0
2022-09-05T22:25:28.045Z,0
2022-09-05T22:28:47.579Z,0
2022-09-05T22:30:27.337Z,0
2022-09-05T22:32:07.113Z,0
2022-09-05T22:33:46.869Z,0
2022-09-05T22:35:26.640Z,0
2022-09-05T22:38:46.177Z,0
2022-09-05T22:40:25.946Z,0
2022-09-05T22:42:05.716Z,0
2022-09-05T22:43:45.488Z,0
2022-09-05T22:45:25.264Z,0
2022-09-05T22:47:05.016Z,0
2022-09-05T22:48:44.790Z,0
2022-09-05T22:50:24.552Z,0
2022-09-05T22:52:04.318Z,0
2022-09-05T22:53:44.081Z,0
2022-09-05T22:55:23.858Z,0
2022-09-05T22:58:43.381Z,0
2022-09-05T23:00:23.157Z,0
2022-09-05T23:02:02.932Z,0
2022-09-05T23:03:42.699Z,0
2022-09-05T23:08:41.992Z,0
2022-09-05T23:10:21.761Z,0
2022-09-05T23:12:01.525Z,0
2022-09-05T23:13:41.300Z,0
2022-09-05T23:15:21.068Z,0
2022-09-05T23:18:40.592Z,0
2022-09-05T23:20:20.365Z,0
2022-09-05T23:22:00.138Z,0
2022-09-05T23:23:39.899Z,0
2022-09-05T23:25:19.674Z,0
2022-09-05T23:28:39.209Z,0
2022-09-05T23:30:18.972Z,0
2022-09-05T23:31:58.738Z,0
2022-09-05T23:33:38.508Z,0
2022-09-05T23:35:18.265Z,0
2022-09-05T23:36:58.051Z,0
2022-09-05T23:38:37.816Z,0
2022-09-05T23:40:17.582Z,0
2022-09-05T23:41:57.374Z,0
2022-09-05T23:43:37.112Z,0
2022-09-05T23:45:16.885Z,0
2022-09-05T23:46:56.656Z,0
2022-09-05T23:48:36.419Z,0
2022-09-05T23:50:16.179Z,0
2022-09-05T23:51:55.942Z,0
2022-09-05T23:53:35.708Z,0
2022-09-05T23:58:35.027Z,0
